Aviation Digital Data Service (ADDS)

Output produced by METARs form (0717 UTC 26 July 2014)
found at http://www.aviationweather.gov/adds/metars/
 
KCRQ 260653Z AUTO 00000KT 6SM BR OVC006 21/18 A2992 RMK AO2 SLP129 T02060183 TSNO $
KCRQ 260553Z AUTO 00000KT 7SM BKN006 21/18 A2992 RMK AO2 SLP128 6//// T02060183 10233 20206 53008 TSNO $
KCRQ 260453Z AUTO 00000KT 7SM OVC006 21/18 A2991 RMK AO2 SLP126 T02060183 TSNO $
KCRQ 260418Z AUTO 00000KT 7SM BKN008 21/18 A2991 RMK AO2 TSNO $
KCRQ 260409Z AUTO 00000KT 7SM SCT008 21/18 A2990 RMK AO2 TSNO $
KCRQ 260353Z AUTO 25003KT 7SM CLR 21/18 A2990 RMK AO2 SLP123 T02110183 TSNO $
KCRQ 260520Z 2606/2706 00000KT P6SM BKN008 
     FM261000 00000KT 5SM BR OVC007 
     FM261500 VRB03KT 6SM BR BKN008 
     FM261700 VRB04KT P6SM SCT120 
     FM262100 26008KT P6SM SCT120 
     FM270200 VRB04KT P6SM SCT008 SCT100